createdAt,value
2017-12-12T00:00:51.692Z,17.10
2017-12-12T00:03:19.358Z,15.07
2017-12-12T00:05:46.855Z,16.10
2017-12-12T00:08:14.877Z,15.90
2017-12-12T00:10:42.654Z,16.93
2017-12-12T00:13:10.411Z,16.43
2017-12-12T00:15:37.933Z,16.80
2017-12-12T00:18:05.432Z,16.53
2017-12-12T00:20:33.079Z,13.63
2017-12-12T00:23:01.160Z,15.57
2017-12-12T00:25:29.168Z,13.20
2017-12-12T00:27:57.291Z,17.00
2017-12-12T00:30:24.799Z,15.33
2017-12-12T00:32:52.515Z,14.73
2017-12-12T00:35:20.033Z,14.00
2017-12-12T00:37:47.716Z,17.60
2017-12-12T00:40:15.495Z,13.80
2017-12-12T00:42:42.994Z,14.77
2017-12-12T00:45:10.716Z,14.50
2017-12-12T00:47:38.219Z,13.20
2017-12-12T00:50:05.944Z,11.80
2017-12-12T00:52:33.454Z,14.83
2017-12-12T00:55:01.135Z,13.70
2017-12-12T00:57:28.636Z,13.77
2017-12-12T00:59:56.911Z,13.00
2017-12-12T01:02:24.457Z,14.60
2017-12-12T01:04:51.964Z,14.90
2017-12-12T01:07:19.668Z,16.10
2017-12-12T01:09:47.182Z,13.27
2017-12-12T01:12:15.512Z,14.57
2017-12-12T01:14:43.020Z,13.90
2017-12-12T01:17:10.730Z,14.30
2017-12-12T01:19:38.224Z,14.83
2017-12-12T01:22:06.433Z,15.13
2017-12-12T01:24:33.986Z,13.40
2017-12-12T01:27:01.780Z,13.27
2017-12-12T01:29:29.544Z,13.80
2017-12-12T01:31:57.302Z,15.10
2017-12-12T01:34:25.068Z,13.77
2017-12-12T01:36:53.520Z,14.10
2017-12-12T01:39:21.207Z,13.53
2017-12-12T01:41:48.976Z,13.97
2017-12-12T01:44:16.471Z,13.93
2017-12-12T01:46:43.979Z,13.63
2017-12-12T01:49:11.480Z,12.83
2017-12-12T01:51:39.006Z,13.50
2017-12-12T01:54:06.564Z,13.00
2017-12-12T01:56:34.327Z,12.73
2017-12-12T01:59:02.096Z,13.40
2017-12-12T02:01:29.611Z,12.90
2017-12-12T02:03:57.116Z,12.83
2017-12-12T02:06:24.696Z,13.13
2017-12-12T02:08:52.229Z,13.47
2017-12-12T02:11:19.782Z,13.30
2017-12-12T02:13:47.279Z,13.27
2017-12-12T02:16:15.539Z,14.00
2017-12-12T02:18:43.249Z,13.23
2017-12-12T02:21:10.747Z,13.77
2017-12-12T02:23:38.501Z,13.60
2017-12-12T02:26:06.004Z,12.53
2017-12-12T02:28:33.505Z,13.40
2017-12-12T02:31:01.003Z,13.73
2017-12-12T02:33:28.512Z,13.60
2017-12-12T02:35:56.011Z,15.17
2017-12-12T02:38:24.282Z,15.10
2017-12-12T02:40:51.924Z,14.67
2017-12-12T02:43:19.455Z,13.70
2017-12-12T02:45:46.940Z,13.10
2017-12-12T02:48:14.603Z,13.93
2017-12-12T02:50:42.095Z,12.70
2017-12-12T02:53:09.608Z,13.07
2017-12-12T02:55:37.274Z,13.77
2017-12-12T02:58:04.991Z,14.20
2017-12-12T03:00:32.489Z,12.47
2017-12-12T03:03:00.258Z,11.33
2017-12-12T03:05:27.760Z,12.13
2017-12-12T03:07:55.384Z,12.37
2017-12-12T03:10:23.856Z,13.07
2017-12-12T03:12:51.619Z,11.70
2017-12-12T03:15:19.587Z,8.93
2017-12-12T03:17:47.092Z,10.37
2017-12-12T03:20:15.840Z,10.57
2017-12-12T03:22:43.336Z,10.50
2017-12-12T03:25:11.067Z,9.90
2017-12-12T03:27:39.043Z,9.70
2017-12-12T03:30:06.551Z,9.13
2017-12-12T03:32:35.323Z,9.93
2017-12-12T03:35:03.041Z,9.50
2017-12-12T03:37:32.038Z,9.07
2017-12-12T03:40:01.070Z,9.90
2017-12-12T03:42:29.084Z,9.27
2017-12-12T03:44:56.618Z,8.93
2017-12-12T03:47:24.312Z,10.37
2017-12-12T03:49:52.011Z,9.73
2017-12-12T03:52:19.519Z,9.67
2017-12-12T03:54:47.186Z,9.93
2017-12-12T03:57:14.744Z,8.50
2017-12-12T03:59:42.244Z,8.97
2017-12-12T04:02:09.755Z,9.00
2017-12-12T04:04:37.639Z,10.47
2017-12-12T04:07:05.154Z,9.93
2017-12-12T04:09:32.776Z,10.27
2017-12-12T04:12:00.723Z,9.33
2017-12-12T04:14:28.211Z,9.27
2017-12-12T04:16:56.209Z,11.77
2017-12-12T04:19:23.712Z,10.07
2017-12-12T04:21:51.451Z,9.80
2017-12-12T04:24:19.534Z,10.53
2017-12-12T04:26:47.052Z,9.00
2017-12-12T04:29:14.556Z,10.67
2017-12-12T04:31:42.064Z,9.10
2017-12-12T04:34:09.588Z,9.50
2017-12-12T04:36:37.087Z,9.43
2017-12-12T04:39:04.588Z,9.60
2017-12-12T04:41:32.146Z,9.47
2017-12-12T04:43:59.636Z,8.57
2017-12-12T04:46:28.008Z,9.30
2017-12-12T04:48:56.555Z,10.80
2017-12-12T04:51:24.259Z,9.87
2017-12-12T04:53:52.084Z,9.23
2017-12-12T04:56:19.571Z,9.63
2017-12-12T04:58:47.083Z,9.37
2017-12-12T05:01:14.752Z,9.30
2017-12-12T05:03:42.264Z,7.60
2017-12-12T05:06:09.796Z,9.13
2017-12-12T05:08:38.464Z,7.90
2017-12-12T05:11:06.051Z,8.63
2017-12-12T05:13:34.715Z,8.53
2017-12-12T05:16:02.876Z,8.07
2017-12-12T05:18:30.381Z,8.43
2017-12-12T05:20:58.396Z,9.00
2017-12-12T05:23:25.920Z,8.97
2017-12-12T05:25:53.619Z,9.20
2017-12-12T05:28:21.431Z,9.00
2017-12-12T05:30:49.459Z,9.57
2017-12-12T05:33:16.975Z,7.17
2017-12-12T05:35:44.475Z,8.60
2017-12-12T05:38:12.272Z,8.77
2017-12-12T05:40:40.548Z,10.20
2017-12-12T05:43:08.445Z,9.97
2017-12-12T05:45:36.039Z,10.30
2017-12-12T05:48:04.104Z,10.00
2017-12-12T05:50:31.625Z,11.33
2017-12-12T05:52:59.283Z,10.80
2017-12-12T05:55:26.809Z,10.43
2017-12-12T05:57:54.311Z,11.67
2017-12-12T06:00:21.811Z,11.77
2017-12-12T06:02:49.303Z,11.23
2017-12-12T06:05:17.207Z,10.93
2017-12-12T06:07:44.756Z,9.90
2017-12-12T06:10:12.223Z,12.57
2017-12-12T06:12:39.835Z,13.60
2017-12-12T06:15:08.332Z,13.13
2017-12-12T06:17:35.855Z,13.50
2017-12-12T06:20:03.919Z,13.80
2017-12-12T06:22:31.413Z,14.17
2017-12-12T06:24:59.943Z,15.17
2017-12-12T06:27:27.857Z,13.90
2017-12-12T06:29:56.388Z,16.43
2017-12-12T06:32:24.165Z,15.40
2017-12-12T06:34:51.915Z,15.10
2017-12-12T06:37:19.434Z,16.80
2017-12-12T06:39:46.945Z,17.93
2017-12-12T06:42:15.232Z,17.23
2017-12-12T06:44:44.423Z,18.03
2017-12-12T06:47:11.971Z,15.13
2017-12-12T06:49:39.735Z,17.40
2017-12-12T06:52:07.648Z,17.87
2017-12-12T06:54:35.923Z,12.30
2017-12-12T06:57:03.440Z,15.70
2017-12-12T06:59:30.939Z,15.70
2017-12-12T07:01:58.978Z,15.77
2017-12-12T07:04:26.483Z,17.23
2017-12-12T07:06:54.991Z,18.27
2017-12-12T07:09:22.764Z,17.33
2017-12-12T07:11:50.531Z,21.20
2017-12-12T07:14:18.038Z,18.23
2017-12-12T07:16:45.944Z,21.03
2017-12-12T07:19:13.520Z,19.13
2017-12-12T07:21:41.133Z,19.17
2017-12-12T07:24:09.648Z,18.63
2017-12-12T07:26:37.152Z,17.30
2017-12-12T07:29:05.719Z,16.67
2017-12-12T07:31:33.261Z,18.10
2017-12-12T07:34:00.764Z,13.33
2017-12-12T07:36:28.463Z,19.67
2017-12-12T07:38:55.975Z,20.77
2017-12-12T07:41:23.473Z,19.90
2017-12-12T07:43:51.147Z,19.80
2017-12-12T07:46:19.108Z,16.07
2017-12-12T07:48:47.073Z,20.50
2017-12-12T07:51:14.564Z,21.00
2017-12-12T07:53:42.219Z,18.37
2017-12-12T07:56:09.710Z,20.30
2017-12-12T07:58:37.975Z,18.57
2017-12-12T08:01:05.791Z,17.20
2017-12-12T08:03:33.295Z,18.40
2017-12-12T08:06:01.320Z,16.37
2017-12-12T08:08:29.231Z,19.10
2017-12-12T08:10:57.491Z,18.30
2017-12-12T08:13:25.528Z,18.23
2017-12-12T08:15:53.304Z,18.40
2017-12-12T08:18:21.060Z,18.20
2017-12-12T08:20:48.560Z,18.23
2017-12-12T08:23:16.068Z,16.60
2017-12-12T08:25:43.988Z,16.37
2017-12-12T08:28:11.900Z,15.13
2017-12-12T08:30:39.403Z,16.63
2017-12-12T08:33:06.915Z,15.87
2017-12-12T08:35:34.493Z,16.50
2017-12-12T08:38:02.057Z,15.90
2017-12-12T08:40:29.568Z,16.43
2017-12-12T08:42:57.087Z,15.50
2017-12-12T08:45:24.596Z,15.10
2017-12-12T08:47:52.100Z,14.60
2017-12-12T08:50:20.154Z,13.97
2017-12-12T08:52:48.220Z,12.43
2017-12-12T08:55:15.720Z,12.90
2017-12-12T08:57:43.416Z,14.53
2017-12-12T09:00:11.312Z,14.10
2017-12-12T09:02:39.270Z,12.87
2017-12-12T09:05:07.032Z,13.90
2017-12-12T09:07:34.800Z,13.10
2017-12-12T09:10:02.768Z,8.17
2017-12-12T09:12:30.296Z,12.93
2017-12-12T09:14:57.795Z,13.10
2017-12-12T09:17:25.418Z,11.90
2017-12-12T09:19:52.966Z,13.27
2017-12-12T09:22:21.071Z,11.53
2017-12-12T09:24:48.567Z,11.40
2017-12-12T09:27:16.069Z,10.43
2017-12-12T09:29:43.564Z,11.73
2017-12-12T09:32:11.386Z,10.93
2017-12-12T09:34:38.966Z,9.83
2017-12-12T09:37:06.499Z,9.67
2017-12-12T09:39:34.198Z,10.07
2017-12-12T09:42:01.704Z,10.00
2017-12-12T09:44:30.278Z,9.73
2017-12-12T09:46:57.780Z,7.90
2017-12-12T09:49:25.283Z,8.40
2017-12-12T09:51:52.797Z,8.33
2017-12-12T09:54:20.684Z,9.87
2017-12-12T09:56:48.199Z,9.90
2017-12-12T09:59:15.687Z,9.83
2017-12-12T10:01:43.447Z,10.20
2017-12-12T10:04:10.939Z,9.37
2017-12-12T10:06:39.583Z,7.80
2017-12-12T10:09:07.348Z,7.00
2017-12-12T10:11:35.564Z,9.20
2017-12-12T10:14:03.054Z,8.73
2017-12-12T10:16:31.205Z,7.40
2017-12-12T10:18:58.716Z,7.67
2017-12-12T10:21:26.207Z,9.43
2017-12-12T10:23:53.714Z,8.90
2017-12-12T10:26:21.392Z,9.33
2017-12-12T10:28:48.904Z,8.60
2017-12-12T10:31:17.444Z,10.90
2017-12-12T10:33:46.538Z,9.40
2017-12-12T10:36:14.055Z,8.87
2017-12-12T10:38:41.959Z,10.37
2017-12-12T10:41:09.847Z,8.83
2017-12-12T10:43:37.467Z,8.80
2017-12-12T10:46:05.512Z,9.77
2017-12-12T10:48:33.727Z,9.00
2017-12-12T10:51:01.215Z,7.40
2017-12-12T10:53:28.948Z,9.60
2017-12-12T10:55:56.451Z,8.30
2017-12-12T10:58:23.951Z,9.00
2017-12-12T11:00:51.505Z,8.97
2017-12-12T11:03:19.073Z,7.17
2017-12-12T11:05:46.839Z,7.50
2017-12-12T11:08:14.647Z,9.13
2017-12-12T11:10:42.369Z,9.10
2017-12-12T11:13:10.243Z,8.93
2017-12-12T11:15:37.891Z,9.50
2017-12-12T11:18:06.679Z,8.37
2017-12-12T11:20:34.298Z,8.80
2017-12-12T11:23:01.800Z,10.00
2017-12-12T11:25:29.311Z,9.03
2017-12-12T11:27:57.012Z,9.77
2017-12-12T11:30:25.087Z,9.03
2017-12-12T11:32:52.852Z,9.00
2017-12-12T11:35:20.469Z,7.80
2017-12-12T11:37:48.067Z,8.93
2017-12-12T11:40:15.813Z,8.23
2017-12-12T11:42:43.317Z,10.83
2017-12-12T11:45:12.696Z,10.27
2017-12-12T11:47:40.367Z,9.10
2017-12-12T11:50:08.279Z,10.00
2017-12-12T11:52:35.788Z,10.23
2017-12-12T11:55:03.309Z,8.23
2017-12-12T11:57:31.211Z,10.47
2017-12-12T11:59:58.715Z,11.90
2017-12-12T12:02:27.239Z,12.27
2017-12-12T12:04:55.007Z,11.20
2017-12-12T12:07:23.284Z,12.63
2017-12-12T12:09:50.816Z,11.43
2017-12-12T12:12:18.313Z,8.90
2017-12-12T12:14:45.843Z,10.37
2017-12-12T12:17:14.144Z,11.27
2017-12-12T12:19:41.648Z,11.70
2017-12-12T12:22:09.151Z,11.30
2017-12-12T12:24:36.731Z,11.10
2017-12-12T12:27:04.261Z,11.80
2017-12-12T12:29:31.779Z,10.97
2017-12-12T12:31:59.491Z,13.77
2017-12-12T12:34:27.858Z,11.23
2017-12-12T12:36:55.500Z,12.80
2017-12-12T12:39:23.000Z,12.37
2017-12-12T12:41:50.903Z,11.57
2017-12-12T12:44:18.613Z,10.83
2017-12-12T12:46:46.375Z,12.07
2017-12-12T12:49:13.871Z,11.27
2017-12-12T12:51:41.383Z,12.00
2017-12-12T12:54:10.027Z,9.33
2017-12-12T12:56:37.731Z,10.73
2017-12-12T12:59:05.227Z,11.50
2017-12-12T13:01:32.984Z,9.10
2017-12-12T13:04:00.488Z,11.43
2017-12-12T13:06:28.008Z,10.60
2017-12-12T13:08:56.272Z,7.77
2017-12-12T13:11:25.547Z,10.47
2017-12-12T13:13:53.776Z,8.17
2017-12-12T13:16:21.995Z,9.80
2017-12-12T13:18:49.759Z,11.97
2017-12-12T13:21:17.516Z,9.60
2017-12-12T13:23:45.493Z,11.43
2017-12-12T13:26:13.013Z,10.17
2017-12-12T13:28:40.515Z,10.67
2017-12-12T13:31:08.476Z,12.97
2017-12-12T13:33:36.957Z,12.20
2017-12-12T13:36:04.444Z,10.90
2017-12-12T13:38:31.956Z,14.13
2017-12-12T13:40:59.634Z,11.27
2017-12-12T13:43:27.140Z,12.20
2017-12-12T13:45:55.500Z,11.93
2017-12-12T13:48:23.204Z,12.50
2017-12-12T13:50:50.695Z,9.97
2017-12-12T13:55:52.152Z,13.30
2017-12-12T13:58:19.779Z,12.87
2017-12-12T14:00:47.791Z,12.43
2017-12-12T14:03:15.757Z,11.00
2017-12-12T14:05:43.195Z,10.50
2017-12-12T14:08:10.716Z,10.50
2017-12-12T14:10:38.453Z,11.60
2017-12-12T14:13:07.003Z,10.57
2017-12-12T14:15:34.499Z,8.60
2017-12-12T14:18:02.025Z,8.63
2017-12-12T14:20:29.711Z,9.57
2017-12-12T14:22:57.218Z,8.93
2017-12-12T14:25:25.228Z,9.70
2017-12-12T14:27:52.848Z,7.37
2017-12-12T14:30:20.432Z,9.23
2017-12-12T14:32:48.452Z,8.97
2017-12-12T14:35:15.944Z,8.90
2017-12-12T14:37:43.438Z,7.40
2017-12-12T14:40:12.665Z,8.37
2017-12-12T14:42:41.287Z,8.27
2017-12-12T14:45:08.830Z,8.93
2017-12-12T14:47:36.728Z,8.33
2017-12-12T14:50:04.239Z,9.10
2017-12-12T14:52:32.463Z,8.50
2017-12-12T14:55:00.524Z,8.17
2017-12-12T14:57:28.591Z,8.23
2017-12-12T14:59:56.858Z,8.37
2017-12-12T15:02:24.420Z,7.10
2017-12-12T15:04:51.914Z,8.03
2017-12-12T15:07:19.643Z,7.47
2017-12-12T15:09:47.413Z,8.17
2017-12-12T15:12:15.176Z,8.30
2017-12-12T15:14:42.940Z,8.37
2017-12-12T15:17:10.430Z,8.07
2017-12-12T15:19:38.172Z,7.33
2017-12-12T15:22:06.233Z,7.20
2017-12-12T15:24:33.996Z,7.73
2017-12-12T15:27:01.488Z,7.13
2017-12-12T15:29:29.012Z,7.40
2017-12-12T15:31:56.983Z,8.80
2017-12-12T15:34:25.400Z,7.37
2017-12-12T15:36:52.892Z,6.87
2017-12-12T15:39:21.168Z,7.70
2017-12-12T15:41:48.956Z,6.77
2017-12-12T15:44:16.844Z,6.60
2017-12-12T15:46:44.438Z,8.53
2017-12-12T15:49:12.493Z,6.00
2017-12-12T15:51:40.393Z,6.57
2017-12-12T15:54:07.952Z,6.77
2017-12-12T15:56:36.211Z,6.50
2017-12-12T15:59:03.704Z,7.90
2017-12-12T16:01:31.204Z,7.23
2017-12-12T16:03:59.486Z,8.13
2017-12-12T16:06:26.965Z,7.80
2017-12-12T16:08:54.464Z,7.13
2017-12-12T16:11:21.964Z,8.40
2017-12-12T16:13:50.254Z,6.90
2017-12-12T16:16:18.260Z,8.10
2017-12-12T16:18:46.024Z,7.73
2017-12-12T16:21:13.527Z,7.80
2017-12-12T16:23:41.411Z,7.77
2017-12-12T16:26:09.696Z,8.80
2017-12-12T16:28:38.607Z,8.33
2017-12-12T16:31:06.371Z,7.27
2017-12-12T16:33:34.540Z,8.90
2017-12-12T16:36:02.212Z,9.40
2017-12-12T16:38:29.720Z,10.10
2017-12-12T16:40:57.731Z,8.90
2017-12-12T16:43:25.995Z,8.90
2017-12-12T16:45:54.003Z,8.10
2017-12-12T16:48:21.515Z,9.07
2017-12-12T16:50:49.095Z,8.97
2017-12-12T16:53:16.813Z,9.27
2017-12-12T16:55:44.319Z,8.80
2017-12-12T16:58:12.075Z,9.20
2017-12-12T17:00:39.580Z,9.43
2017-12-12T17:03:07.852Z,10.20
2017-12-12T17:05:35.861Z,10.20
2017-12-12T17:08:03.448Z,9.80
2017-12-12T17:10:30.935Z,10.93
2017-12-12T17:12:58.435Z,10.90
2017-12-12T17:15:26.948Z,9.00
2017-12-12T17:17:55.414Z,7.90
2017-12-12T17:20:22.929Z,9.20
2017-12-12T17:22:50.419Z,11.63
2017-12-12T17:25:17.952Z,8.80
2017-12-12T17:27:46.475Z,9.80
2017-12-12T17:30:15.260Z,9.33
2017-12-12T17:32:42.796Z,9.13
2017-12-12T17:35:10.792Z,11.43
2017-12-12T17:37:38.412Z,9.03
2017-12-12T17:40:06.216Z,17.90
2017-12-12T17:42:34.593Z,13.47
2017-12-12T17:45:02.356Z,11.00
2017-12-12T17:47:30.255Z,10.97
2017-12-12T17:49:57.879Z,10.70
2017-12-12T17:52:25.366Z,12.73
2017-12-12T17:54:53.103Z,9.70
2017-12-12T17:57:21.244Z,9.60
2017-12-12T17:59:48.939Z,12.20
2017-12-12T18:02:16.440Z,10.80
2017-12-12T18:04:44.876Z,8.13
2017-12-12T18:07:12.726Z,12.37
2017-12-12T18:09:40.225Z,10.80
2017-12-12T18:12:07.755Z,11.10
2017-12-12T18:14:36.135Z,13.43
2017-12-12T18:17:03.748Z,12.40
2017-12-12T18:19:31.243Z,10.10
2017-12-12T18:21:59.146Z,11.70
2017-12-12T18:24:26.871Z,10.77
2017-12-12T18:26:54.639Z,12.93
2017-12-12T18:29:22.141Z,12.80
2017-12-12T18:31:49.840Z,12.50
2017-12-12T18:34:17.626Z,11.60
2017-12-12T18:36:45.138Z,13.50
2017-12-12T18:39:13.459Z,13.90
2017-12-12T18:41:41.536Z,12.63
2017-12-12T18:44:09.028Z,14.10
2017-12-12T18:46:38.099Z,13.60
2017-12-12T18:49:05.749Z,13.50
2017-12-12T18:51:33.267Z,13.20
2017-12-12T18:54:01.639Z,15.77
2017-12-12T18:56:29.540Z,15.27
2017-12-12T18:58:57.057Z,11.80
2017-12-12T19:01:24.551Z,14.03
2017-12-12T19:03:52.070Z,14.63
2017-12-12T19:06:19.553Z,14.00
2017-12-12T19:08:47.059Z,13.30
2017-12-12T19:11:15.472Z,17.93
2017-12-12T19:13:43.036Z,14.40
2017-12-12T19:16:10.932Z,14.43
2017-12-12T19:18:38.923Z,13.13
2017-12-12T19:21:06.803Z,15.77
2017-12-12T19:23:34.313Z,14.60
2017-12-12T19:26:01.892Z,15.10
2017-12-12T19:28:29.604Z,13.60
2017-12-12T19:30:57.996Z,14.93
2017-12-12T19:33:25.519Z,14.10
2017-12-12T19:35:53.011Z,15.30
2017-12-12T19:38:20.630Z,13.30
2017-12-12T19:40:48.131Z,12.57
2017-12-12T19:43:16.028Z,15.90
2017-12-12T19:45:43.655Z,11.00
2017-12-12T19:48:12.376Z,16.23
2017-12-12T19:50:40.272Z,14.77
2017-12-12T19:53:08.199Z,14.80
2017-12-12T19:55:35.696Z,9.53
2017-12-12T19:58:03.232Z,16.90
2017-12-12T20:00:30.738Z,16.57
2017-12-12T20:02:59.010Z,17.10
2017-12-12T20:05:26.922Z,19.03
2017-12-12T20:07:54.484Z,16.47
2017-12-12T20:10:21.998Z,17.03
2017-12-12T20:12:50.327Z,16.27
2017-12-12T20:15:18.440Z,16.80
2017-12-12T20:17:46.160Z,15.60
2017-12-12T20:20:13.667Z,16.63
2017-12-12T20:22:41.557Z,17.77
2017-12-12T20:25:09.580Z,13.67
2017-12-12T20:27:37.211Z,16.27
2017-12-12T20:30:04.718Z,19.50
2017-12-12T20:32:32.434Z,18.50
2017-12-12T20:35:00.204Z,10.80
2017-12-12T20:37:27.809Z,17.30
2017-12-12T20:39:57.004Z,16.03
2017-12-12T20:42:24.715Z,11.70
2017-12-12T20:44:52.788Z,15.53
2017-12-12T20:47:20.296Z,17.90
2017-12-12T20:49:47.796Z,15.93
2017-12-12T20:52:15.459Z,17.60
2017-12-12T20:54:43.219Z,19.13
2017-12-12T20:57:10.732Z,16.73
2017-12-12T20:59:38.221Z,16.97
2017-12-12T21:02:05.899Z,15.83
2017-12-12T21:04:33.400Z,10.53
2017-12-12T21:07:07.320Z,18.30
2017-12-12T21:09:36.567Z,17.50
2017-12-12T21:12:04.635Z,14.63
2017-12-12T21:14:32.146Z,18.90
2017-12-12T21:16:59.647Z,18.20
2017-12-12T21:19:27.145Z,15.90
2017-12-12T21:21:55.624Z,17.77
2017-12-12T21:24:23.124Z,19.57
2017-12-12T21:26:50.628Z,21.13
2017-12-12T21:29:18.684Z,18.00
2017-12-12T21:31:46.446Z,17.83
2017-12-12T21:34:14.331Z,16.63
2017-12-12T21:36:41.966Z,16.60
2017-12-12T21:39:10.000Z,16.70
2017-12-12T21:41:37.532Z,17.77
2017-12-12T21:44:05.423Z,20.27
2017-12-12T21:46:33.789Z,18.13
2017-12-12T21:49:01.857Z,22.10
2017-12-12T21:51:30.284Z,19.47
2017-12-12T21:53:57.792Z,14.50
2017-12-12T21:56:25.292Z,21.10
2017-12-12T21:58:53.562Z,18.60
2017-12-12T22:01:21.058Z,19.63
2017-12-12T22:03:48.726Z,19.90
2017-12-12T22:06:16.211Z,21.77
2017-12-12T22:08:44.247Z,12.90
2017-12-12T22:11:12.548Z,22.00
2017-12-12T22:13:40.106Z,22.90
2017-12-12T22:16:08.179Z,17.07
2017-12-12T22:18:35.808Z,25.10
2017-12-12T22:21:03.391Z,12.43
2017-12-12T22:23:31.160Z,15.57
2017-12-12T22:25:59.535Z,19.70
2017-12-12T22:28:27.436Z,15.00
2017-12-12T22:30:55.711Z,19.53
2017-12-12T22:33:23.956Z,16.47
2017-12-12T22:35:51.452Z,17.00
2017-12-12T22:38:19.900Z,11.10
2017-12-12T22:40:47.907Z,22.00
2017-12-12T22:43:16.676Z,23.07
2017-12-12T22:45:44.380Z,24.67
2017-12-12T22:48:11.888Z,14.37
2017-12-12T22:50:39.392Z,20.87
2017-12-12T22:53:06.891Z,19.10
2017-12-12T22:55:34.847Z,24.77
2017-12-12T22:58:02.352Z,23.73
2017-12-12T23:00:30.343Z,12.17
2017-12-12T23:02:58.143Z,10.27
2017-12-12T23:05:25.643Z,20.50
2017-12-12T23:07:53.947Z,19.23
2017-12-12T23:10:22.604Z,23.10
2017-12-12T23:12:51.406Z,23.43
2017-12-12T23:15:18.899Z,21.20
2017-12-12T23:17:46.522Z,20.53
2017-12-12T23:20:14.029Z,13.07
2017-12-12T23:22:42.402Z,14.30
2017-12-12T23:25:10.950Z,13.40
2017-12-12T23:27:39.205Z,18.97
2017-12-12T23:30:07.223Z,18.17
2017-12-12T23:32:35.120Z,19.97
2017-12-12T23:35:03.024Z,20.50
2017-12-12T23:37:30.951Z,19.83
2017-12-12T23:39:58.564Z,13.40
2017-12-12T23:42:26.354Z,19.47
2017-12-12T23:44:54.272Z,21.57
2017-12-12T23:47:22.162Z,22.00
2017-12-12T23:49:49.669Z,19.60
2017-12-12T23:52:18.676Z,15.80
2017-12-12T23:54:46.188Z,21.53
2017-12-12T23:57:13.730Z,18.80
2017-12-12T23:59:41.216Z,19.57
